createdAt,value
2022-11-13T00:00:37.764Z,101009.44
2022-11-13T00:03:04.122Z,101005.03
2022-11-13T00:05:30.564Z,101002.31
2022-11-13T00:07:57.045Z,101000.41
2022-11-13T00:10:23.494Z,100994.19
2022-11-13T00:12:49.857Z,101002.84
2022-11-13T00:15:16.422Z,101000.03
2022-11-13T00:17:42.813Z,100993.81
2022-11-13T00:20:09.361Z,100999.78
2022-11-13T00:22:35.817Z,100996.19
2022-11-13T00:25:02.290Z,100997.00
2022-11-13T00:27:31.191Z,100999.66
2022-11-13T00:29:57.662Z,100994.28
2022-11-13T00:32:24.040Z,100995.97
2022-11-13T00:34:50.514Z,100991.44
2022-11-13T00:37:16.953Z,100991.44
2022-11-13T00:39:43.453Z,100988.88
2022-11-13T00:42:10.023Z,100987.09
2022-11-13T00:44:36.451Z,100981.03
2022-11-13T00:47:02.846Z,100983.69
2022-11-13T00:49:29.290Z,100982.81
2022-11-13T00:51:55.724Z,100974.00
2022-11-13T00:54:22.151Z,100975.81
2022-11-13T00:56:48.593Z,100982.03
2022-11-13T00:59:15.004Z,100975.91
2022-11-13T01:01:41.409Z,100978.63
2022-11-13T01:04:07.796Z,100975.19
2022-11-13T01:06:34.183Z,100973.53
2022-11-13T01:09:00.781Z,100971.00
2022-11-13T01:11:29.619Z,100977.41
2022-11-13T01:13:56.595Z,100972.25
2022-11-13T01:16:28.030Z,100979.56
2022-11-13T01:18:55.530Z,100980.47
2022-11-13T01:21:24.732Z,100982.44
2022-11-13T01:23:51.809Z,100979.88
2022-11-13T01:26:28.037Z,100975.66
2022-11-13T01:28:55.421Z,100977.47
2022-11-13T01:31:25.084Z,100979.41
2022-11-13T01:33:52.184Z,100972.47
2022-11-13T01:36:27.665Z,100977.22
2022-11-13T01:38:55.216Z,100970.22
2022-11-13T01:41:31.977Z,100977.63
2022-11-13T01:44:00.093Z,100978.56
2022-11-13T01:46:31.478Z,100985.81
2022-11-13T01:49:09.707Z,100971.13
2022-11-13T01:51:50.439Z,100970.47
2022-11-13T01:54:21.641Z,100971.41
2022-11-13T01:56:49.009Z,100959.25
2022-11-13T01:59:28.870Z,100962.28
2022-11-13T02:01:56.308Z,100965.81
2022-11-13T02:04:23.395Z,100958.94
2022-11-13T02:06:54.505Z,100945.94
2022-11-13T02:09:35.858Z,100947.88
2022-11-13T02:12:05.597Z,100943.59
2022-11-13T02:14:32.435Z,100929.59
2022-11-13T02:17:02.144Z,100934.19
2022-11-13T02:19:35.742Z,100931.69
2022-11-13T02:22:28.384Z,100930.03
2022-11-13T02:24:58.586Z,100929.84
2022-11-13T02:27:30.888Z,100929.91
2022-11-13T02:29:57.400Z,100922.75
2022-11-13T02:32:23.824Z,100926.19
2022-11-13T02:34:50.241Z,100925.19
2022-11-13T02:37:16.680Z,100923.31
2022-11-13T02:39:43.041Z,100915.22
2022-11-13T02:42:09.457Z,100917.72
2022-11-13T02:44:35.865Z,100921.13
2022-11-13T02:47:02.238Z,100919.28
2022-11-13T02:49:28.596Z,100919.28
2022-11-13T02:51:55.009Z,100915.72
2022-11-13T02:54:21.433Z,100913.13
2022-11-13T02:56:47.961Z,100908.88
2022-11-13T02:59:14.401Z,100905.41
2022-11-13T03:01:40.814Z,100908.25
2022-11-13T03:04:07.269Z,100905.75
2022-11-13T03:06:33.786Z,100902.41
2022-11-13T03:09:00.195Z,100899.03
2022-11-13T03:11:26.559Z,100894.81
2022-11-13T03:13:53.398Z,100893.25
2022-11-13T03:16:19.808Z,100893.44
2022-11-13T03:18:46.223Z,100893.50
2022-11-13T03:21:14.695Z,100890.94
2022-11-13T03:23:42.279Z,100889.22
2022-11-13T03:26:11.687Z,100900.72
2022-11-13T03:28:38.131Z,100895.44
2022-11-13T03:31:05.433Z,100904.28
2022-11-13T03:33:31.982Z,100897.28
2022-11-13T03:35:58.626Z,100895.66
2022-11-13T03:38:25.736Z,100895.72
2022-11-13T03:40:52.415Z,100897.66
2022-11-13T03:43:19.280Z,100888.09
2022-11-13T03:45:47.083Z,100885.59
2022-11-13T03:48:14.680Z,100884.78
2022-11-13T03:50:46.888Z,100882.31
2022-11-13T03:53:13.992Z,100876.09
2022-11-13T03:55:41.472Z,100874.41
2022-11-13T03:58:08.155Z,100872.59
2022-11-13T04:00:35.483Z,100870.81
2022-11-13T04:06:10.788Z,100861.75
2022-11-13T04:08:37.284Z,100857.25
2022-11-13T04:11:09.104Z,100863.38
2022-11-13T04:13:35.708Z,100865.72
2022-11-13T04:16:02.383Z,100849.78
2022-11-13T04:18:29.036Z,100858.44
2022-11-13T04:21:03.905Z,100857.50
2022-11-13T04:23:31.172Z,100854.63
2022-11-13T04:25:58.406Z,100844.94
2022-11-13T04:28:24.960Z,100843.91
2022-11-13T04:30:54.305Z,100842.28
2022-11-13T04:33:20.937Z,100844.94
2022-11-13T04:35:48.537Z,100837.22
2022-11-13T04:38:15.633Z,100844.44
2022-11-13T04:40:42.458Z,100845.53
2022-11-13T04:43:09.027Z,100838.75
2022-11-13T04:45:36.259Z,100833.69
2022-11-13T04:48:05.717Z,100834.03
2022-11-13T04:50:32.342Z,100831.59
2022-11-13T04:52:58.815Z,100822.03
2022-11-13T04:55:25.557Z,100828.13
2022-11-13T04:57:55.521Z,100822.78
2022-11-13T05:00:22.649Z,100835.00
2022-11-13T05:02:49.251Z,100825.22
2022-11-13T05:05:15.921Z,100813.72
2022-11-13T05:07:42.700Z,100814.47
2022-11-13T05:10:09.844Z,100812.63
2022-11-13T05:12:36.519Z,100810.75
2022-11-13T05:15:03.980Z,100802.00
2022-11-13T05:17:30.522Z,100807.28
2022-11-13T05:19:57.110Z,100800.28
2022-11-13T05:22:23.670Z,100805.66
2022-11-13T05:24:50.127Z,100806.66
2022-11-13T05:27:17.735Z,100804.94
2022-11-13T05:29:44.762Z,100805.94
2022-11-13T05:32:11.311Z,100803.44
2022-11-13T05:34:38.010Z,100796.69
2022-11-13T05:37:04.572Z,100795.97
2022-11-13T05:39:30.962Z,100797.03
2022-11-13T05:41:57.435Z,100789.22
2022-11-13T05:44:23.997Z,100796.34
2022-11-13T05:46:50.466Z,100792.94
2022-11-13T05:49:17.039Z,100789.50
2022-11-13T05:51:43.643Z,100781.72
2022-11-13T05:54:11.159Z,100786.16
2022-11-13T05:56:37.988Z,100776.59
2022-11-13T05:59:05.138Z,100781.94
2022-11-13T06:01:35.080Z,100779.38
2022-11-13T06:04:02.238Z,100780.31
2022-11-13T06:06:30.449Z,100780.38
2022-11-13T06:08:58.337Z,100775.03
2022-11-13T06:11:26.816Z,100770.66
2022-11-13T06:13:54.481Z,100773.16
2022-11-13T06:16:27.262Z,100774.09
2022-11-13T06:18:59.015Z,100772.22
2022-11-13T06:21:28.985Z,100765.03
2022-11-13T06:23:57.321Z,100767.44
2022-11-13T06:26:26.064Z,100758.50
2022-11-13T06:28:52.690Z,100758.28
2022-11-13T06:31:22.726Z,100739.81
2022-11-13T06:33:50.057Z,100737.09
2022-11-13T06:36:19.642Z,100745.03
2022-11-13T06:38:47.946Z,100737.03
2022-11-13T06:41:16.668Z,100729.09
2022-11-13T06:43:44.233Z,100730.66
2022-11-13T06:46:14.112Z,100735.78
2022-11-13T06:48:40.710Z,100732.84
2022-11-13T06:51:09.996Z,100734.41
2022-11-13T06:53:36.563Z,100733.16
2022-11-13T06:56:06.360Z,100733.88
2022-11-13T06:58:33.368Z,100732.72
2022-11-13T07:01:14.566Z,100730.97
2022-11-13T07:03:41.242Z,100731.63
2022-11-13T07:06:13.939Z,100735.03
2022-11-13T07:08:44.153Z,100730.69
2022-11-13T07:11:13.595Z,100724.47
2022-11-13T07:13:40.940Z,100721.81
2022-11-13T07:16:16.176Z,100720.13
2022-11-13T07:18:43.337Z,100720.13
2022-11-13T07:21:12.049Z,100721.97
2022-11-13T07:23:43.494Z,100723.78
2022-11-13T07:26:11.508Z,100728.19
2022-11-13T07:28:38.451Z,100726.47
2022-11-13T07:31:05.654Z,100721.34
2022-11-13T07:33:32.298Z,100734.00
2022-11-13T07:35:59.694Z,100729.88
2022-11-13T07:38:26.653Z,100726.78
2022-11-13T07:40:53.894Z,100736.84
2022-11-13T07:43:20.707Z,100735.69
2022-11-13T07:45:47.383Z,100734.44
2022-11-13T07:48:13.938Z,100733.25
2022-11-13T07:50:40.540Z,100735.50
2022-11-13T07:53:08.830Z,100730.72
2022-11-13T07:55:36.187Z,100733.88
2022-11-13T07:58:04.399Z,100729.84
2022-11-13T08:00:33.356Z,100732.91
2022-11-13T08:03:09.140Z,100726.31
2022-11-13T08:05:36.332Z,100721.16
2022-11-13T08:08:04.009Z,100721.44
2022-11-13T08:10:30.795Z,100716.31
2022-11-13T08:13:00.240Z,100713.03
2022-11-13T08:15:27.732Z,100720.13
2022-11-13T08:17:58.471Z,100715.84
2022-11-13T08:20:26.609Z,100715.09
2022-11-13T08:22:53.221Z,100710.72
2022-11-13T08:25:20.477Z,100721.34
2022-11-13T08:27:47.106Z,100711.72
2022-11-13T08:30:14.749Z,100710.00
2022-11-13T08:32:41.322Z,100711.72
2022-11-13T08:35:08.191Z,100712.56
2022-11-13T08:37:34.802Z,100709.00
2022-11-13T08:40:01.376Z,100706.25
2022-11-13T08:42:28.111Z,100710.53
2022-11-13T08:44:54.670Z,100714.72
2022-11-13T08:47:23.416Z,100708.34
2022-11-13T08:49:53.481Z,100700.13
2022-11-13T08:52:20.045Z,100708.53
2022-11-13T08:54:46.635Z,100704.66
2022-11-13T08:57:13.293Z,100702.50
2022-11-13T08:59:39.968Z,100701.22
2022-11-13T09:02:06.564Z,100709.69
2022-11-13T09:04:33.085Z,100708.47
2022-11-13T09:06:59.639Z,100702.06
2022-11-13T09:09:26.285Z,100698.28
2022-11-13T09:11:52.861Z,100696.19
2022-11-13T09:14:19.421Z,100696.75
2022-11-13T09:16:45.834Z,100692.97
2022-11-13T09:19:12.331Z,100687.31
2022-11-13T09:21:38.852Z,100693.03
2022-11-13T09:24:06.481Z,100690.88
2022-11-13T09:26:34.864Z,100686.06
2022-11-13T09:29:01.614Z,100696.16
2022-11-13T09:31:28.208Z,100685.22
2022-11-13T09:33:54.748Z,100683.81
2022-11-13T09:36:21.469Z,100682.50
2022-11-13T09:38:48.058Z,100683.78
2022-11-13T09:41:19.449Z,100684.22
2022-11-13T09:43:58.252Z,100688.19
2022-11-13T09:46:40.795Z,100684.19
2022-11-13T09:49:16.141Z,100686.59
2022-11-13T09:51:51.177Z,100682.56
2022-11-13T09:54:18.073Z,100681.19
2022-11-13T09:56:59.618Z,100680.09
2022-11-13T09:59:39.693Z,100681.28
2022-11-13T10:02:22.840Z,100684.06
2022-11-13T10:05:07.358Z,100666.75
2022-11-13T10:08:03.318Z,100664.44
2022-11-13T10:10:55.267Z,100663.47
2022-11-13T10:13:28.393Z,100664.63
2022-11-13T10:16:03.699Z,100663.09
2022-11-13T10:18:35.276Z,100654.38
2022-11-13T10:21:23.800Z,100649.59
2022-11-13T10:23:56.733Z,100643.53
2022-11-13T10:26:27.370Z,100638.38
2022-11-13T10:29:02.722Z,100635.16
2022-11-13T10:31:29.472Z,100634.31
2022-11-13T10:33:57.524Z,100629.19
2022-11-13T10:36:54.633Z,100626.91
2022-11-13T10:39:21.232Z,100625.75
2022-11-13T10:41:53.443Z,100617.94
2022-11-13T10:44:23.682Z,100614.41
2022-11-13T10:46:50.159Z,100620.31
2022-11-13T10:49:29.092Z,100616.56
2022-11-13T10:51:57.704Z,100607.25
2022-11-13T10:54:27.885Z,100600.66
2022-11-13T10:57:03.726Z,100599.44
2022-11-13T10:59:41.462Z,100593.34
2022-11-13T11:02:20.372Z,100587.78
2022-11-13T11:04:47.333Z,100585.97
2022-11-13T11:07:21.918Z,100586.28
2022-11-13T11:09:50.716Z,100577.47
2022-11-13T11:12:30.747Z,100576.72
2022-11-13T11:14:58.188Z,100567.16
2022-11-13T11:17:50.653Z,100563.13
2022-11-13T11:20:26.015Z,100551.19
2022-11-13T11:23:00.084Z,100555.78
2022-11-13T11:25:41.334Z,100553.13
2022-11-13T11:28:46.584Z,100549.31
2022-11-13T11:31:37.334Z,100537.38
2022-11-13T11:34:44.921Z,100538.00
2022-11-13T11:37:17.217Z,100529.16
2022-11-13T11:39:50.129Z,100536.53
2022-11-13T11:42:28.350Z,100526.88
2022-11-13T11:45:15.886Z,100532.88
2022-11-13T11:47:43.945Z,100520.97
2022-11-13T11:50:47.170Z,100529.13
2022-11-13T11:53:27.493Z,100529.34
2022-11-13T11:56:09.532Z,100521.22
2022-11-13T11:58:58.405Z,100515.25
2022-11-13T12:01:50.397Z,100511.38
2022-11-13T12:04:42.127Z,100511.41
2022-11-13T12:07:38.853Z,100503.94
2022-11-13T12:10:27.188Z,100503.97
2022-11-13T12:12:59.681Z,100493.59
2022-11-13T12:15:26.150Z,100497.13
2022-11-13T12:18:17.370Z,100493.19
2022-11-13T12:20:56.827Z,100488.13
2022-11-13T12:24:01.597Z,100487.94
2022-11-13T12:26:47.362Z,100486.19
2022-11-13T12:29:19.782Z,100482.75
2022-11-13T12:32:04.637Z,100476.25
2022-11-13T12:34:59.123Z,100478.41
2022-11-13T12:37:38.653Z,100468.88
2022-11-13T12:40:19.640Z,100482.63
2022-11-13T12:42:46.007Z,100471.84
2022-11-13T12:45:27.728Z,100470.41
2022-11-13T12:47:54.264Z,100471.59
2022-11-13T12:50:20.839Z,100474.66
2022-11-13T12:53:01.376Z,100477.47
2022-11-13T12:55:34.774Z,100480.88
2022-11-13T12:58:32.022Z,100469.97
2022-11-13T13:01:10.272Z,100463.63
2022-11-13T13:03:49.822Z,100474.97
2022-11-13T13:06:37.576Z,100473.88
2022-11-13T13:09:33.859Z,100467.00
2022-11-13T13:12:17.606Z,100467.44
2022-11-13T13:15:12.093Z,100465.88
2022-11-13T13:17:39.439Z,100460.56
2022-11-13T13:20:49.400Z,100457.78
2022-11-13T13:23:27.461Z,100466.28
2022-11-13T13:26:03.245Z,100454.63
2022-11-13T13:28:31.619Z,100451.19
2022-11-13T13:31:13.169Z,100438.03
2022-11-13T13:34:03.715Z,100445.28
2022-11-13T13:36:49.179Z,100445.94
2022-11-13T13:39:21.554Z,100431.72
2022-11-13T13:42:06.531Z,100432.81
2022-11-13T13:44:41.939Z,100427.06
2022-11-13T13:47:23.847Z,100418.97
2022-11-13T13:49:52.021Z,100414.94
2022-11-13T13:52:26.799Z,100415.25
2022-11-13T13:54:53.671Z,100423.13
2022-11-13T13:57:20.254Z,100406.81
2022-11-13T13:59:46.834Z,100412.06
2022-11-13T14:02:18.755Z,100406.41
2022-11-13T14:04:47.736Z,100403.53
2022-11-13T14:07:33.694Z,100397.19
2022-11-13T14:10:13.116Z,100397.09
2022-11-13T14:12:44.172Z,100394.94
2022-11-13T14:15:30.059Z,100388.47
2022-11-13T14:18:09.876Z,100388.66
2022-11-13T14:20:45.104Z,100386.16
2022-11-13T14:23:22.963Z,100389.16
2022-11-13T14:25:50.483Z,100383.88
2022-11-13T14:28:19.629Z,100381.34
2022-11-13T14:30:54.674Z,100376.34
2022-11-13T14:33:30.392Z,100380.34
2022-11-13T14:35:58.834Z,100370.13
2022-11-13T14:38:29.206Z,100378.59
2022-11-13T14:40:56.158Z,100369.63
2022-11-13T14:43:29.502Z,100384.22
2022-11-13T14:46:01.349Z,100374.97
2022-11-13T14:48:35.050Z,100375.94
2022-11-13T14:51:07.267Z,100372.91
2022-11-13T14:53:35.237Z,100373.78
2022-11-13T14:56:04.684Z,100371.44
2022-11-13T14:58:40.161Z,100372.50
2022-11-13T15:01:22.416Z,100379.53
2022-11-13T15:03:50.434Z,100373.97
2022-11-13T15:06:22.713Z,100374.94
2022-11-13T15:08:53.991Z,100371.69
2022-11-13T15:11:22.471Z,100371.97
2022-11-13T15:13:50.372Z,100378.25
2022-11-13T15:16:23.799Z,100369.00
2022-11-13T15:19:02.761Z,100364.38
2022-11-13T15:21:30.162Z,100371.94
2022-11-13T15:23:57.079Z,100371.53
2022-11-13T15:26:24.310Z,100367.41
2022-11-13T15:28:50.905Z,100364.22
2022-11-13T15:31:32.610Z,100369.25
2022-11-13T15:33:59.056Z,100358.69
2022-11-13T15:36:26.201Z,100364.22
2022-11-13T15:38:52.717Z,100351.28
2022-11-13T15:41:24.634Z,100359.56
2022-11-13T15:43:53.610Z,100354.28
2022-11-13T15:46:22.346Z,100351.50
2022-11-13T15:48:49.626Z,100354.06
2022-11-13T15:51:48.378Z,100343.63
2022-11-13T15:54:22.278Z,100347.88
2022-11-13T15:56:48.778Z,100341.50
2022-11-13T15:59:15.489Z,100343.13
2022-11-13T16:01:42.283Z,100340.38
2022-11-13T16:07:29.397Z,100346.50
2022-11-13T16:09:56.027Z,100350.56
2022-11-13T16:12:22.530Z,100348.72
2022-11-13T16:14:49.093Z,100349.41
2022-11-13T16:17:20.285Z,100345.72
2022-11-13T16:19:52.876Z,100343.84
2022-11-13T16:22:21.071Z,100344.34
2022-11-13T16:24:47.589Z,100341.41
2022-11-13T16:27:22.612Z,100335.91
2022-11-13T16:29:49.144Z,100333.81
2022-11-13T16:32:16.761Z,100331.75
2022-11-13T16:34:44.575Z,100322.69
2022-11-13T16:37:19.053Z,100333.94
2022-11-13T16:39:45.685Z,100334.34
2022-11-13T16:42:13.546Z,100337.50
2022-11-13T16:44:40.449Z,100338.13
2022-11-13T16:47:17.622Z,100337.91
2022-11-13T16:49:44.066Z,100336.72
2022-11-13T16:52:10.528Z,100333.78
2022-11-13T16:54:37.019Z,100334.38
2022-11-13T16:57:03.584Z,100332.44
2022-11-13T16:59:30.096Z,100329.63
2022-11-13T17:01:57.075Z,100327.66
2022-11-13T17:04:23.581Z,100321.25
2022-11-13T17:06:51.464Z,100321.84
2022-11-13T17:09:20.690Z,100319.75
2022-11-13T17:11:47.197Z,100322.91
2022-11-13T17:14:13.945Z,100315.56
2022-11-13T17:16:40.361Z,100323.00
2022-11-13T17:19:06.962Z,100310.41
2022-11-13T17:21:33.453Z,100316.06
2022-11-13T17:24:02.635Z,100310.41
2022-11-13T17:26:31.269Z,100307.25
2022-11-13T17:28:59.849Z,100310.28
2022-11-13T17:31:26.758Z,100302.75
2022-11-13T17:33:54.217Z,100300.59
2022-11-13T17:36:21.686Z,100301.84
2022-11-13T17:38:48.272Z,100302.13
2022-11-13T17:41:16.454Z,100292.00
2022-11-13T17:43:43.326Z,100287.94
2022-11-13T17:46:12.903Z,100286.63
2022-11-13T17:48:39.882Z,100293.97
2022-11-13T17:51:08.214Z,100292.63
2022-11-13T17:53:34.887Z,100298.28
2022-11-13T17:56:04.899Z,100303.94
2022-11-13T17:58:37.582Z,100294.75
2022-11-13T18:01:06.733Z,100288.09
2022-11-13T18:03:33.827Z,100297.25
2022-11-13T18:06:08.408Z,100305.66
2022-11-13T18:08:37.482Z,100301.56
2022-11-13T18:11:09.043Z,100304.63
2022-11-13T18:13:36.400Z,100301.38
2022-11-13T18:16:05.540Z,100299.91
2022-11-13T18:18:32.120Z,100296.72
2022-11-13T18:20:59.302Z,100301.38
2022-11-13T18:23:26.529Z,100292.03
2022-11-13T18:25:53.189Z,100276.50
2022-11-13T18:28:19.784Z,100291.63
2022-11-13T18:30:46.289Z,100286.50
2022-11-13T18:33:13.017Z,100284.00
2022-11-13T18:35:39.561Z,100285.84
2022-11-13T18:38:06.109Z,100285.97
2022-11-13T18:40:32.626Z,100280.88
2022-11-13T18:42:59.119Z,100274.81
2022-11-13T18:45:25.585Z,100281.94
2022-11-13T18:47:52.079Z,100276.66
2022-11-13T18:50:18.657Z,100270.63
2022-11-13T18:52:45.205Z,100272.41
2022-11-13T18:55:11.818Z,100274.09
2022-11-13T18:57:38.296Z,100263.59
2022-11-13T19:00:05.326Z,100257.47
2022-11-13T19:02:31.818Z,100260.09
2022-11-13T19:04:58.266Z,100260.97
2022-11-13T19:07:24.879Z,100257.47
2022-11-13T19:09:51.429Z,100258.34
2022-11-13T19:12:18.031Z,100265.34
2022-11-13T19:14:44.535Z,100256.56
2022-11-13T19:17:11.126Z,100262.59
2022-11-13T19:19:37.884Z,100264.38
2022-11-13T19:22:04.274Z,100259.06
2022-11-13T19:24:30.994Z,100251.13
2022-11-13T19:26:57.545Z,100256.31
2022-11-13T19:29:24.176Z,100246.56
2022-11-13T19:31:53.584Z,100244.81
2022-11-13T19:34:20.116Z,100255.19
2022-11-13T19:36:49.454Z,100245.50
2022-11-13T19:39:16.833Z,100257.81
2022-11-13T19:41:43.448Z,100246.38
2022-11-13T19:44:09.982Z,100249.00
2022-11-13T19:46:36.516Z,100243.75
2022-11-13T19:49:03.186Z,100236.69
2022-11-13T19:51:29.666Z,100237.56
2022-11-13T19:53:58.440Z,100249.84
2022-11-13T19:56:27.026Z,100246.38
2022-11-13T19:58:53.833Z,100253.34
2022-11-13T20:01:23.780Z,100242.88
2022-11-13T20:03:58.149Z,100240.25
2022-11-13T20:06:26.205Z,100236.66
2022-11-13T20:08:52.798Z,100235.75
2022-11-13T20:11:19.353Z,100220.81
2022-11-13T20:13:46.342Z,100220.75
2022-11-13T20:16:15.581Z,100219.06
2022-11-13T20:18:43.491Z,100217.25
2022-11-13T20:21:10.522Z,100211.16
2022-11-13T20:23:37.127Z,100212.09
2022-11-13T20:26:06.407Z,100218.19
2022-11-13T20:28:33.328Z,100207.75
2022-11-13T20:31:03.762Z,100203.47
2022-11-13T20:33:32.929Z,100199.09
2022-11-13T20:35:59.425Z,100195.66
2022-11-13T20:38:26.207Z,100202.78
2022-11-13T20:40:52.856Z,100202.84
2022-11-13T20:43:19.462Z,100199.34
2022-11-13T20:45:46.017Z,100191.47
2022-11-13T20:48:12.634Z,100191.47
2022-11-13T20:50:39.297Z,100192.31
2022-11-13T20:53:05.909Z,100187.94
2022-11-13T20:55:32.522Z,100181.81
2022-11-13T20:57:59.038Z,100174.75
2022-11-13T21:00:25.725Z,100164.22
2022-11-13T21:02:52.272Z,100166.84
2022-11-13T21:05:18.755Z,100163.38
2022-11-13T21:07:45.379Z,100163.38
2022-11-13T21:10:11.910Z,100158.19
2022-11-13T21:12:38.472Z,100150.22
2022-11-13T21:15:05.499Z,100150.31
2022-11-13T21:17:32.052Z,100155.50
2022-11-13T21:19:58.591Z,100143.28
2022-11-13T21:22:25.139Z,100145.91
2022-11-13T21:24:51.687Z,100140.66
2022-11-13T21:27:18.170Z,100140.66
2022-11-13T21:29:44.764Z,100146.75
2022-11-13T21:32:11.311Z,100150.22
2022-11-13T21:34:38.299Z,100140.59
2022-11-13T21:37:04.835Z,100136.22
2022-11-13T21:39:31.487Z,100130.97
2022-11-13T21:41:58.012Z,100135.34
2022-11-13T21:44:24.573Z,100130.16
2022-11-13T21:46:51.162Z,100125.72
2022-11-13T21:49:17.697Z,100124.03
2022-11-13T21:51:44.349Z,100128.41
2022-11-13T21:54:11.056Z,100119.72
2022-11-13T21:56:38.917Z,100117.16
2022-11-13T21:59:06.868Z,100119.78
2022-11-13T22:01:38.369Z,100111.88
2022-11-13T22:04:06.187Z,100114.53
2022-11-13T22:06:36.387Z,100114.59
2022-11-13T22:09:07.887Z,100105.94
2022-11-13T22:11:36.114Z,100109.41
2022-11-13T22:14:03.298Z,100105.94
2022-11-13T22:16:32.816Z,100102.44
2022-11-13T22:19:03.479Z,100104.31
2022-11-13T22:21:31.052Z,100094.63
2022-11-13T22:23:58.800Z,100106.84
2022-11-13T22:26:26.575Z,100091.16
2022-11-13T22:28:54.212Z,100092.06
2022-11-13T22:31:28.607Z,100094.94
2022-11-13T22:33:55.624Z,100081.78
2022-11-13T22:36:27.419Z,100085.47
2022-11-13T22:38:54.553Z,100084.56
2022-11-13T22:41:29.295Z,100070.78
2022-11-13T22:43:59.753Z,100064.66
2022-11-13T22:46:29.468Z,100062.97
2022-11-13T22:48:57.126Z,100056.84
2022-11-13T22:51:29.713Z,100057.03
2022-11-13T22:54:01.480Z,100053.53
2022-11-13T22:56:30.140Z,100051.91
2022-11-13T22:58:59.342Z,100051.97
2022-11-13T23:01:28.153Z,100046.78
2022-11-13T23:03:55.941Z,100043.38
2022-11-13T23:06:24.806Z,100047.00
2022-11-13T23:08:51.873Z,100052.31
2022-11-13T23:11:30.342Z,100048.06
2022-11-13T23:13:58.799Z,100036.69
2022-11-13T23:16:26.827Z,100037.63
2022-11-13T23:18:55.781Z,100028.97
2022-11-13T23:21:22.698Z,100024.63
2022-11-13T23:23:49.255Z,100025.63
2022-11-13T23:26:16.724Z,100024.94
2022-11-13T23:28:43.487Z,100021.50
2022-11-13T23:31:10.459Z,100022.44
2022-11-13T23:33:38.074Z,100039.09
2022-11-13T23:36:05.747Z,100025.97
2022-11-13T23:38:32.483Z,100016.31
2022-11-13T23:41:01.011Z,100018.16
2022-11-13T23:43:47.749Z,100005.00
2022-11-13T23:46:15.715Z,100006.69
2022-11-13T23:48:42.400Z,100000.50
2022-11-13T23:51:09.379Z,100000.50
2022-11-13T23:53:35.946Z,99990.88
2022-11-13T23:56:02.509Z,99994.31
2022-11-13T23:58:30.459Z,99994.31
